Time;durP1;ratioP1;P1;durP2;ratioP2;P2;SDS_P1;SDS_P2;PMS_P1;PMS_P2;Temp;Humidity;BMP_temperature;BMP_pressure;BME280_temperature;BME280_humidity;BME280_pressure;Samples;Min_cycle;Max_cycle;Signal;HPM_P1;HPM_P2
2023/10/06 00:02:19;;;;;;;1999.90;999.90;;;14.80;99.90;;;;;;5102154;28;20441;-65
2023/10/06 00:04:45;;;;;;;1999.90;999.90;;;14.80;99.90;;;;;;5116071;28;20039;-64
2023/10/06 00:07:14;;;;;;;1999.90;999.90;;;14.70;99.90;;;;;;5095862;28;20036;-64
2023/10/06 00:09:43;;;;;;;1999.90;999.90;;;14.70;99.90;;;;;;5091235;28;20327;-74
2023/10/06 00:12:13;;;;;;;1999.90;999.90;;;14.70;99.90;;;;;;5104601;28;20023;-64
2023/10/06 00:14:40;;;;;;;1999.90;999.90;;;14.70;99.90;;;;;;5106206;28;20027;-64
2023/10/06 00:17:15;;;;;;;1999.90;999.90;;;14.60;99.90;;;;;;5111806;28;20035;-65
2023/10/06 00:19:42;;;;;;;1999.90;999.90;;;14.60;99.90;;;;;;5107093;28;20411;-64
2023/10/06 00:24:36;;;;;;;1999.90;999.90;;;14.50;99.90;;;;;;5109064;28;20031;-65
2023/10/06 00:27:03;;;;;;;1999.90;999.90;;;14.50;99.90;;;;;;5100158;28;20028;-65
2023/10/06 00:29:29;;;;;;;1999.90;999.90;;;14.50;99.90;;;;;;5105921;28;20023;-65
2023/10/06 00:32:03;;;;;;;1999.90;999.90;;;14.50;99.90;;;;;;5110482;28;20031;-73
2023/10/06 00:34:30;;;;;;;1999.90;999.90;;;14.50;99.90;;;;;;5110274;28;20031;-65
2023/10/06 00:37:01;;;;;;;1999.90;999.90;;;14.50;99.90;;;;;;5101031;28;20106;-65
2023/10/06 00:39:30;;;;;;;1999.90;999.90;;;14.50;99.90;;;;;;5104223;28;20027;-74
2023/10/06 00:41:56;;;;;;;1999.90;999.90;;;14.40;99.90;;;;;;5095804;28;20039;-64
2023/10/06 00:44:25;;;;;;;1999.90;999.90;;;14.40;99.90;;;;;;5099509;28;20082;-65
2023/10/06 00:46:52;;;;;;;1999.90;999.90;;;14.40;99.90;;;;;;5098864;28;20024;-64
2023/10/06 00:49:19;;;;;;;1999.90;999.90;;;14.40;99.90;;;;;;5101601;27;20047;-65
2023/10/06 00:51:47;;;;;;;1999.90;999.90;;;14.40;99.90;;;;;;5101383;28;20422;-65
2023/10/06 00:54:14;;;;;;;1999.90;999.90;;;14.40;99.90;;;;;;5112661;28;20031;-65
2023/10/06 00:56:40;;;;;;;1999.90;999.90;;;14.40;99.90;;;;;;5084221;28;20026;-65
2023/10/06 00:59:06;;;;;;;1999.90;999.90;;;14.30;99.90;;;;;;5100264;28;20036;-65
2023/10/06 01:01:34;;;;;;;1999.90;999.90;;;14.30;99.90;;;;;;5107567;28;20495;-65
2023/10/06 01:04:11;;;;;;;1999.90;999.90;;;14.30;99.90;;;;;;5096798;28;20105;-74
2023/10/06 01:06:41;;;;;;;1999.90;999.90;;;14.30;99.90;;;;;;5112505;28;20028;-65
2023/10/06 01:11:49;;;;;;;1999.90;999.90;;;14.30;99.90;;;;;;5106726;28;20027;-65
2023/10/06 01:14:21;;;;;;;1999.90;999.90;;;14.30;99.90;;;;;;5098944;28;20028;-65
2023/10/06 01:16:49;;;;;;;1999.90;999.90;;;14.20;99.90;;;;;;5106942;28;20406;-64
2023/10/06 01:19:28;;;;;;;1999.90;999.90;;;14.20;99.90;;;;;;5102208;28;20032;-65
2023/10/06 01:21:55;;;;;;;1999.90;999.90;;;14.20;99.90;;;;;;5108318;28;20024;-65
2023/10/06 01:24:25;;;;;;;1999.90;999.90;;;14.20;99.90;;;;;;5107495;28;20055;-74
2023/10/06 01:26:53;;;;;;;1999.90;999.90;;;14.20;99.90;;;;;;5113596;28;20032;-65
2023/10/06 01:29:28;;;;;;;1999.90;999.90;;;14.20;99.90;;;;;;5113923;28;20027;-65
2023/10/06 01:31:54;;;;;;;1999.90;999.90;;;14.10;99.90;;;;;;5110070;28;20030;-65
2023/10/06 01:34:20;;;;;;;1999.90;999.90;;;14.20;99.90;;;;;;5109044;28;20110;-65
2023/10/06 01:36:51;;;;;;;1999.90;999.90;;;14.10;99.90;;;;;;5100612;28;20474;-65
2023/10/06 01:39:18;;;;;;;1999.90;999.90;;;14.10;99.90;;;;;;5102492;28;20047;-74
2023/10/06 01:41:47;;;;;;;1999.90;999.90;;;14.10;99.90;;;;;;5088724;28;20024;-65
2023/10/06 01:44:17;;;;;;;1999.90;999.90;;;14.10;99.90;;;;;;5107805;28;20043;-65
2023/10/06 01:46:44;;;;;;;1999.90;999.90;;;14.10;99.90;;;;;;5108673;28;20069;-68
2023/10/06 01:49:10;;;;;;;1999.90;999.90;;;14.10;99.90;;;;;;5112772;28;20099;-65
2023/10/06 01:51:40;;;;;;;1999.90;999.90;;;14.10;99.90;;;;;;5098972;28;20035;-65
2023/10/06 01:54:12;;;;;;;1999.90;999.90;;;14.00;99.90;;;;;;5113511;28;20035;-65
2023/10/06 01:56:42;;;;;;;1999.90;999.90;;;14.00;99.90;;;;;;5109862;28;20131;-65
2023/10/06 01:59:10;;;;;;;1999.90;999.90;;;14.00;99.90;;;;;;5107116;28;20047;-65
2023/10/06 02:01:40;;;;;;;1999.90;999.90;;;13.90;99.90;;;;;;5102579;28;20020;-65
2023/10/06 02:04:18;;;;;;;1999.90;999.90;;;14.00;99.90;;;;;;5102107;28;20036;-65
2023/10/06 02:06:51;;;;;;;1999.90;999.90;;;14.00;99.90;;;;;;5100501;28;20073;-65
2023/10/06 02:09:18;;;;;;;1999.90;999.90;;;13.90;99.90;;;;;;5103616;28;20419;-74
2023/10/06 02:11:45;;;;;;;1999.90;999.90;;;13.90;99.90;;;;;;5107166;28;20020;-65
2023/10/06 02:14:17;;;;;;;1999.90;999.90;;;13.90;99.90;;;;;;5098560;28;20124;-65
2023/10/06 02:16:48;;;;;;;1999.90;999.90;;;13.90;99.90;;;;;;5095192;28;20361;-68
2023/10/06 02:19:17;;;;;;;1999.90;999.90;;;13.90;99.90;;;;;;5102306;28;20321;-64
2023/10/06 02:21:47;;;;;;;1999.90;999.90;;;13.80;99.90;;;;;;5115837;28;20047;-65
2023/10/06 02:24:16;;;;;;;1999.90;999.90;;;13.80;99.90;;;;;;5085590;28;20418;-75
2023/10/06 02:26:43;;;;;;;1999.90;999.90;;;13.80;99.90;;;;;;5106510;28;20028;-64
2023/10/06 02:32:07;;;;;;;1999.90;999.90;;;13.70;99.90;;;;;;5099455;28;20050;-65
2023/10/06 02:34:38;;;;;;;1999.90;999.90;;;13.70;99.90;;;;;;5094730;28;20073;-65
2023/10/06 02:37:04;;;;;;;1999.90;999.90;;;13.70;99.90;;;;;;5073404;28;20106;-65
2023/10/06 02:39:34;;;;;;;1999.90;999.90;;;13.70;99.90;;;;;;5100703;28;20028;-64
2023/10/06 02:42:07;;;;;;;1999.90;999.90;;;13.70;99.90;;;;;;5106943;27;20058;-65
2023/10/06 02:44:38;;;;;;;1999.90;999.90;;;13.70;99.90;;;;;;5111561;28;20031;-65
2023/10/06 02:47:04;;;;;;;1999.90;999.90;;;13.70;99.90;;;;;;5114037;28;20056;-66
2023/10/06 02:49:35;;;;;;;1999.90;999.90;;;13.70;99.90;;;;;;5115260;28;20334;-65
2023/10/06 02:52:13;;;;;;;1999.90;999.90;;;13.70;99.90;;;;;;5104304;28;20401;-65
2023/10/06 02:54:47;;;;;;;1999.90;999.90;;;13.70;99.90;;;;;;5111871;28;20024;-65
2023/10/06 02:57:13;;;;;;;1999.90;999.90;;;13.70;99.90;;;;;;5104305;28;20022;-65
2023/10/06 02:59:39;;;;;;;1999.90;999.90;;;13.70;99.90;;;;;;5103186;28;20022;-65
2023/10/06 03:02:15;;;;;;;1999.90;999.90;;;13.70;99.90;;;;;;5114133;28;20103;-65
2023/10/06 03:04:44;;;;;;;;;;;13.70;99.90;;;;;;5106255;28;20038;-65
2023/10/06 03:07:18;;;;;;;1999.90;999.90;;;13.70;99.90;;;;;;5097643;28;19918;-65
2023/10/06 03:09:46;;;;;;;1999.90;999.90;;;13.70;99.90;;;;;;5102263;28;20047;-65
2023/10/06 03:12:26;;;;;;;1999.90;999.90;;;13.70;99.90;;;;;;5105949;28;20271;-65
2023/10/06 03:14:54;;;;;;;1999.90;999.90;;;13.70;99.90;;;;;;5115189;28;20032;-64
2023/10/06 03:17:20;;;;;;;1999.90;999.90;;;13.70;99.90;;;;;;5117551;28;20023;-65
2023/10/06 03:19:56;;;;;;;;;;;13.80;99.90;;;;;;5116747;28;20310;-64
2023/10/06 03:22:25;;;;;;;1999.90;999.90;;;13.70;99.90;;;;;;5117511;28;19904;-65
2023/10/06 03:24:58;;;;;;;1999.90;999.90;;;13.70;99.90;;;;;;5111001;28;20115;-65
2023/10/06 03:27:25;;;;;;;1999.90;999.90;;;13.70;99.90;;;;;;5117752;28;20030;-64
2023/10/06 03:29:54;;;;;;;1999.90;999.90;;;13.70;99.90;;;;;;5116562;28;20032;-65
2023/10/06 03:32:32;;;;;;;1999.90;999.90;;;13.70;99.90;;;;;;5117382;28;20310;-65
2023/10/06 03:35:06;;;;;;;1999.90;999.90;;;13.70;99.90;;;;;;5102406;28;20051;-64
2023/10/06 03:37:36;;;;;;;1999.90;999.90;;;13.80;99.90;;;;;;5112559;28;20088;-77
2023/10/06 03:40:21;;;;;;;1999.90;999.90;;;13.70;99.90;;;;;;5116476;28;20015;-65
2023/10/06 03:42:47;;;;;;;1999.90;999.90;;;13.70;99.90;;;;;;5108390;28;20013;-77
2023/10/06 03:45:31;;;;;;;1999.90;999.90;;;13.80;99.90;;;;;;5102242;28;20027;-65
2023/10/06 03:48:12;;;;;;;1999.90;999.90;;;13.80;99.90;;;;;;5094555;28;20059;-66
2023/10/06 03:50:42;;;;;;;1999.90;999.90;;;13.80;99.90;;;;;;5105584;28;20039;-65
2023/10/06 03:53:09;;;;;;;1999.90;999.90;;;13.80;99.90;;;;;;5106988;28;20364;-65
2023/10/06 03:55:39;;;;;;;1999.90;999.90;;;13.80;99.90;;;;;;5114476;28;20300;-65
2023/10/06 03:58:10;;;;;;;1999.90;999.90;;;13.80;99.90;;;;;;5097923;28;20052;-65
2023/10/06 04:00:40;;;;;;;1999.90;999.90;;;13.80;99.90;;;;;;5114045;28;20603;-65
2023/10/06 04:03:10;;;;;;;1999.90;999.90;;;13.80;99.90;;;;;;5115302;28;20062;-78
2023/10/06 04:05:39;;;;;;;1999.90;999.90;;;13.80;99.90;;;;;;5115428;28;20024;-65
2023/10/06 04:08:12;;;;;;;1999.90;999.90;;;13.80;99.90;;;;;;5113255;28;20160;-65
2023/10/06 04:10:40;;;;;;;1999.90;999.90;;;13.80;99.90;;;;;;5115563;28;20020;-74
2023/10/06 04:13:10;;;;;;;1999.90;999.90;;;13.80;99.90;;;;;;5101753;28;20055;-65
2023/10/06 04:15:43;;;;;;;1999.90;999.90;;;13.80;99.90;;;;;;5106719;28;20046;-65
2023/10/06 04:18:10;;;;;;;1999.90;999.90;;;13.80;99.90;;;;;;5113444;28;20284;-75
2023/10/06 04:20:38;;;;;;;1999.90;999.90;;;13.80;99.90;;;;;;5114853;28;20024;-65
2023/10/06 04:23:04;;;;;;;1999.90;999.90;;;13.70;99.90;;;;;;5115112;28;20031;-65
2023/10/06 04:25:31;;;;;;;1999.90;999.90;;;13.80;99.90;;;;;;5115555;28;20031;-65
2023/10/06 04:27:57;;;;;;;;;;;13.70;99.90;;;;;;5111687;28;20035;-65
2023/10/06 04:30:25;;;;;;;1999.90;999.90;;;13.70;99.90;;;;;;5106690;28;19918;-65
2023/10/06 04:32:51;;;;;;;1999.90;999.90;;;13.70;99.90;;;;;;5108138;28;20322;-65
2023/10/06 04:35:24;;;;;;;1999.90;999.90;;;13.70;99.90;;;;;;5098895;28;20098;-66
2023/10/06 04:37:50;;;;;;;1999.90;999.90;;;13.70;99.90;;;;;;5090266;28;20031;-65
2023/10/06 04:40:20;;;;;;;1999.90;999.90;;;13.60;99.90;;;;;;5096028;28;20016;-65
2023/10/06 04:42:46;;;;;;;1999.90;999.90;;;13.60;99.90;;;;;;5082552;28;20107;-74
2023/10/06 04:45:12;;;;;;;1999.90;999.90;;;13.60;99.90;;;;;;5112349;28;20099;-65
2023/10/06 04:47:42;;;;;;;1999.90;999.90;;;13.60;99.90;;;;;;5114944;28;20019;-65
2023/10/06 04:50:15;;;;;;;1999.90;999.90;;;13.60;99.90;;;;;;5112082;28;20063;-65
2023/10/06 04:52:46;;;;;;;1999.90;999.90;;;13.60;99.90;;;;;;5103217;28;20027;-65
2023/10/06 04:55:13;;;;;;;1999.90;999.90;;;13.60;99.90;;;;;;5113286;28;20026;-65
2023/10/06 04:57:43;;;;;;;1999.90;999.90;;;13.60;99.90;;;;;;5114816;28;20026;-65
2023/10/06 05:00:22;;;;;;;1999.90;999.90;;;13.60;99.90;;;;;;5111653;28;20024;-65
2023/10/06 05:02:50;;;;;;;1999.90;999.90;;;13.60;99.90;;;;;;5106518;28;20020;-65
2023/10/06 05:05:20;;;;;;;1999.90;999.90;;;13.60;99.90;;;;;;5096527;28;20331;-75
2023/10/06 05:07:51;;;;;;;1999.90;999.90;;;13.60;99.90;;;;;;5098628;28;20016;-65
2023/10/06 05:10:21;;;;;;;1999.90;999.90;;;13.60;99.90;;;;;;5094995;28;20358;-65
2023/10/06 05:12:51;;;;;;;1999.90;999.90;;;13.60;99.90;;;;;;5106638;28;20047;-65
2023/10/06 05:15:32;;;;;;;1999.90;999.90;;;13.70;99.90;;;;;;5108470;28;20052;-65
2023/10/06 05:18:03;;;;;;;1999.90;999.90;;;13.70;99.90;;;;;;5097312;28;20376;-65
2023/10/06 05:20:31;;;;;;;1999.90;999.90;;;13.60;99.90;;;;;;5084146;28;20024;-65
2023/10/06 05:23:09;;;;;;;1999.90;999.90;;;13.60;99.90;;;;;;5098375;28;20024;-65
2023/10/06 05:25:39;;;;;;;1999.90;999.90;;;13.60;99.90;;;;;;5100800;28;20028;-74
2023/10/06 05:28:07;;;;;;;1999.90;999.90;;;13.70;99.90;;;;;;5094624;28;20024;-65
2023/10/06 05:30:34;;;;;;;1999.90;999.90;;;13.70;99.90;;;;;;5098577;28;20016;-65
2023/10/06 05:33:03;;;;;;;1999.90;999.90;;;13.70;99.90;;;;;;5099613;28;20038;-65
2023/10/06 05:35:42;;;;;;;1999.90;999.90;;;13.70;99.90;;;;;;5094723;28;20020;-64
2023/10/06 05:38:13;;;;;;;1999.90;999.90;;;13.70;99.90;;;;;;5104368;28;20039;-65
2023/10/06 05:40:42;;;;;;;1999.90;999.90;;;13.70;99.90;;;;;;5105862;28;20022;-66
2023/10/06 05:43:16;;;;;;;1999.90;999.90;;;13.70;99.90;;;;;;5096858;28;20415;-65
2023/10/06 05:45:45;;;;;;;1999.90;999.90;;;13.70;99.90;;;;;;5094618;28;20024;-65
2023/10/06 05:48:12;;;;;;;1999.90;999.90;;;13.70;99.90;;;;;;5102461;28;20024;-65
2023/10/06 05:50:41;;;;;;;1999.90;999.90;;;13.70;99.90;;;;;;5094524;28;20059;-65
2023/10/06 05:53:19;;;;;;;1999.90;999.90;;;13.70;99.90;;;;;;5078919;28;20024;-65
2023/10/06 05:55:49;;;;;;;1999.90;999.90;;;13.70;99.90;;;;;;5101503;28;20051;-65
2023/10/06 05:58:19;;;;;;;1999.90;999.90;;;13.70;99.90;;;;;;5117427;28;20023;-65
2023/10/06 06:00:51;;;;;;;1999.90;999.90;;;13.70;99.90;;;;;;5100718;28;20311;-65
2023/10/06 06:03:20;;;;;;;1999.90;999.90;;;13.80;99.90;;;;;;5100929;28;20020;-65
2023/10/06 06:05:53;;;;;;;1999.90;999.90;;;13.80;99.90;;;;;;5105927;28;20494;-65
2023/10/06 06:08:20;;;;;;;1999.90;999.90;;;13.80;99.90;;;;;;5099391;28;20062;-65
2023/10/06 06:10:46;;;;;;;1999.90;999.90;;;13.80;99.90;;;;;;5100346;28;20019;-65
2023/10/06 06:13:16;;;;;;;1999.90;999.90;;;13.90;99.90;;;;;;5118754;28;20028;-65
2023/10/06 06:15:41;;;;;;;1999.90;999.90;;;13.90;99.90;;;;;;5119242;28;20023;-65
2023/10/06 06:18:08;;;;;;;1999.90;999.90;;;13.90;99.90;;;;;;5114893;28;20028;-77
2023/10/06 06:20:38;;;;;;;1999.90;999.90;;;14.00;99.90;;;;;;5091217;28;20122;-65
2023/10/06 06:23:08;;;;;;;1999.90;999.90;;;14.00;99.90;;;;;;5118267;28;20035;-65
2023/10/06 06:25:37;;;;;;;1999.90;999.90;;;14.00;99.90;;;;;;5118623;28;20300;-65
2023/10/06 06:28:05;;;;;;;1999.90;999.90;;;14.00;99.90;;;;;;5116749;28;20024;-65
2023/10/06 06:30:37;;;;;;;1999.90;999.90;;;14.00;99.90;;;;;;5100294;28;20031;-65
2023/10/06 06:33:04;;;;;;;1999.90;999.90;;;14.00;99.90;;;;;;5114159;28;20035;-77
2023/10/06 06:35:32;;;;;;;1999.90;999.90;;;13.90;99.90;;;;;;5096751;28;20019;-65
2023/10/06 06:38:01;;;;;;;1999.90;999.90;;;14.00;99.90;;;;;;5099514;28;20032;-65
2023/10/06 06:40:31;;;;;;;1999.90;999.90;;;14.00;99.90;;;;;;5117214;28;20016;-65
2023/10/06 06:42:59;;;;;;;1999.90;999.90;;;14.00;99.90;;;;;;5110679;27;20095;-65
2023/10/06 06:45:26;;;;;;;1999.90;999.90;;;14.00;99.90;;;;;;5103973;28;20103;-65
2023/10/06 06:47:52;;;;;;;1999.90;999.90;;;14.00;99.90;;;;;;5106160;28;20082;-65
2023/10/06 06:50:19;;;;;;;1999.90;999.90;;;14.00;99.90;;;;;;5104296;28;20086;-66
2023/10/06 06:52:47;;;;;;;1999.90;999.90;;;14.00;99.90;;;;;;5100278;28;20104;-66
2023/10/06 06:55:14;;;;;;;1999.90;999.90;;;14.00;99.90;;;;;;5104921;28;20016;-65
2023/10/06 06:57:43;;;;;;;1999.90;999.90;;;14.00;99.90;;;;;;5114483;28;20024;-81
2023/10/06 07:00:15;;;;;;;1999.90;999.90;;;14.10;99.90;;;;;;5105621;28;20035;-65
2023/10/06 07:02:46;;;;;;;1999.90;999.90;;;14.10;99.90;;;;;;5100660;28;20017;-65
2023/10/06 07:05:14;;;;;;;1999.90;999.90;;;14.20;99.90;;;;;;5102179;28;20052;-79
2023/10/06 07:07:43;;;;;;;1999.90;999.90;;;14.50;99.90;;;;;;5106696;28;20027;-75
2023/10/06 07:10:13;;;;;;;1999.90;999.90;;;14.90;99.90;;;;;;5098630;28;20466;-65
2023/10/06 07:12:39;;;;;;;1999.90;999.90;;;15.30;99.90;;;;;;5109105;28;20534;-76
2023/10/06 07:15:14;;;;;;;1999.90;999.90;;;15.50;99.90;;;;;;5108181;28;20046;-66
2023/10/06 07:17:46;;;;;;;1999.90;999.90;;;15.80;99.90;;;;;;5112269;28;20031;-66
2023/10/06 07:20:27;;;;;;;1999.90;999.90;;;15.90;99.90;;;;;;5107023;28;20024;-75
2023/10/06 07:22:55;;;;;;;1999.90;999.90;;;15.90;99.90;;;;;;5108463;28;20024;-65
2023/10/06 07:25:24;;;;;;;1999.90;999.90;;;15.80;99.90;;;;;;5101087;28;20438;-66
2023/10/06 07:27:55;;;;;;;1999.90;999.90;;;16.00;99.90;;;;;;5106738;28;20019;-66
2023/10/06 07:30:22;;;;;;;1999.90;999.90;;;16.10;99.90;;;;;;5103450;28;20047;-66
2023/10/06 07:32:50;;;;;;;1999.90;999.90;;;16.10;99.90;;;;;;5099533;28;20020;-66
2023/10/06 07:35:30;;;;;;;1999.90;999.90;;;16.10;99.90;;;;;;5100443;28;20103;-65
2023/10/06 07:37:57;;;;;;;1999.90;999.90;;;16.20;99.90;;;;;;5104278;27;20024;-65
2023/10/06 07:40:27;;;;;;;1999.90;999.90;;;16.40;99.90;;;;;;5116730;27;20043;-74
2023/10/06 07:42:57;;;;;;;1999.90;999.90;;;16.40;99.90;;;;;;5113028;27;20032;-66
2023/10/06 07:45:23;;;;;;;1999.90;999.90;;;16.50;99.90;;;;;;5086823;28;20354;-66
2023/10/06 07:47:49;;;;;;;1999.90;999.90;;;16.60;99.90;;;;;;5109259;27;20011;-67
2023/10/06 07:50:15;;;;;;;1999.90;999.90;;;16.70;99.90;;;;;;5092052;28;20709;-66
2023/10/06 07:52:43;;;;;;;1999.90;999.90;;;16.80;99.90;;;;;;5124377;27;20023;-66
2023/10/06 07:55:10;;;;;;;1999.90;999.90;;;16.80;99.90;;;;;;5115167;27;20042;-66
2023/10/06 07:57:40;;;;;;;1999.90;999.90;;;16.90;99.90;;;;;;5114489;27;20048;-76
2023/10/06 08:00:12;;;;;;;1999.90;999.90;;;16.90;99.90;;;;;;5111533;27;20329;-67
2023/10/06 08:02:41;;;;;;;1999.90;999.90;;;16.90;99.90;;;;;;5100803;27;20419;-66
2023/10/06 08:05:11;;;;;;;1999.90;999.90;;;16.90;99.90;;;;;;5124244;27;20022;-73
2023/10/06 08:07:39;;;;;;;1999.90;999.90;;;16.90;99.90;;;;;;5109855;27;20052;-67
2023/10/06 08:10:05;;;;;;;1999.90;999.90;;;17.00;99.90;;;;;;5115428;27;20322;-66
2023/10/06 08:12:35;;;;;;;1999.90;999.90;;;17.00;99.90;;;;;;5113649;27;20421;-67
2023/10/06 08:15:09;;;;;;;1999.90;999.90;;;17.10;99.90;;;;;;5102890;27;20023;-66
2023/10/06 08:17:38;;;;;;;1999.90;999.90;;;17.00;99.90;;;;;;5116057;27;20461;-66
2023/10/06 08:20:12;;;;;;;1999.90;999.90;;;16.90;99.90;;;;;;5103747;27;20039;-67
2023/10/06 08:22:39;;;;;;;1999.90;999.90;;;16.80;99.90;;;;;;5106248;28;20125;-66
2023/10/06 08:25:05;;;;;;;1999.90;999.90;;;16.70;99.90;;;;;;5107217;27;20113;-66
2023/10/06 08:27:35;;;;;;;;;;;16.60;99.90;;;;;;5102347;27;20020;-66
2023/10/06 08:30:01;;;;;;;1999.90;999.90;;;16.50;99.90;;;;;;5098824;27;19915;-66
2023/10/06 08:32:27;;;;;;;1999.90;999.90;;;16.40;99.90;;;;;;5098596;28;20042;-66
2023/10/06 08:34:53;;;;;;;1999.90;999.90;;;16.40;99.90;;;;;;5101564;27;20058;-70
2023/10/06 08:37:19;;;;;;;1999.90;999.90;;;16.40;99.90;;;;;;5095830;28;20407;-66
2023/10/06 08:39:46;;;;;;;1999.90;999.90;;;16.40;99.90;;;;;;5104398;28;20425;-66
2023/10/06 08:42:15;;;;;;;1999.90;999.90;;;16.50;99.90;;;;;;5113755;28;20068;-66
2023/10/06 08:44:44;;;;;;;1999.90;999.90;;;16.60;99.90;;;;;;5085619;28;20314;-67
2023/10/06 08:47:13;;;;;;;1999.90;999.90;;;16.60;99.90;;;;;;5114231;28;20323;-66
2023/10/06 08:49:50;;;;;;;1999.90;999.90;;;16.70;99.90;;;;;;5081498;28;20332;-66
2023/10/06 08:52:22;;;;;;;1999.90;999.90;;;16.80;99.90;;;;;;5079615;28;20598;-67
2023/10/06 08:54:48;;;;;;;1999.90;999.90;;;16.70;99.90;;;;;;5091048;28;20075;-66
2023/10/06 08:57:15;;;;;;;1999.90;999.90;;;16.80;99.90;;;;;;5083207;28;20017;-67
2023/10/06 08:59:42;;;;;;;1999.90;999.90;;;16.70;99.90;;;;;;5085216;28;20048;-77
2023/10/06 09:02:10;;;;;;;1999.90;999.90;;;16.70;99.90;;;;;;5087224;28;20099;-66
2023/10/06 09:04:37;;;;;;;1999.90;999.90;;;16.70;99.90;;;;;;5083568;28;20108;-66
2023/10/06 09:07:12;;;;;;;1999.90;999.90;;;16.80;99.90;;;;;;5086207;28;20025;-67
2023/10/06 09:09:43;;;;;;;1999.90;999.90;;;16.80;99.90;;;;;;5091506;28;20297;-66
2023/10/06 09:12:31;;;;;;;1999.90;999.90;;;16.80;99.90;;;;;;5100722;28;20259;-67
2023/10/06 09:14:57;;;;;;;1999.90;999.90;;;16.90;99.90;;;;;;5081019;28;20052;-66
2023/10/06 09:17:36;;;;;;;1999.90;999.90;;;16.90;99.90;;;;;;5094144;28;20050;-66
2023/10/06 09:20:02;;;;;;;1999.90;999.90;;;16.90;99.90;;;;;;5087103;28;20046;-66
2023/10/06 09:22:43;;;;;;;1999.90;999.90;;;16.90;99.90;;;;;;5095750;28;20026;-66
2023/10/06 09:25:10;;;;;;;1999.90;999.90;;;17.00;99.90;;;;;;5088783;28;20024;-78
2023/10/06 09:27:37;;;;;;;1999.90;999.90;;;17.10;99.90;;;;;;5087831;28;20434;-66
2023/10/06 09:30:11;;;;;;;1999.90;999.90;;;17.30;99.90;;;;;;5081534;28;20041;-67
2023/10/06 09:32:39;;;;;;;1999.90;999.90;;;17.30;99.90;;;;;;5097319;28;20070;-76
2023/10/06 09:35:24;;;;;;;1999.90;999.90;;;17.50;99.90;;;;;;5084392;28;20028;-66
2023/10/06 09:37:54;;;;;;;1999.90;999.90;;;17.80;99.90;;;;;;5087107;28;20031;-66
2023/10/06 09:40:23;;;;;;;1999.90;999.90;;;18.00;99.90;;;;;;5073209;28;20016;-66
2023/10/06 09:42:54;;;;;;;1999.90;999.90;;;18.10;99.90;;;;;;5074562;28;20394;-67
2023/10/06 09:45:24;;;;;;;1999.90;999.90;;;18.20;99.90;;;;;;5077113;28;20106;-66
2023/10/06 09:47:56;;;;;;;1999.90;999.90;;;18.20;99.90;;;;;;5088370;28;20032;-77
2023/10/06 09:50:23;;;;;;;1999.90;999.90;;;18.20;99.90;;;;;;5074482;28;20047;-66
2023/10/06 09:52:50;;;;;;;1999.90;999.90;;;18.10;99.90;;;;;;5073285;28;20030;-67
2023/10/06 09:55:19;;;;;;;1999.90;999.90;;;18.10;99.90;;;;;;5075750;28;20091;-67
2023/10/06 09:57:50;;;;;;;1999.90;999.90;;;18.10;99.90;;;;;;5078193;28;20039;-67
2023/10/06 10:00:19;;;;;;;1999.90;999.90;;;18.20;99.90;;;;;;5087501;28;20027;-68
2023/10/06 10:02:49;;;;;;;1999.90;999.90;;;18.20;99.90;;;;;;5093986;28;20063;-67
2023/10/06 10:05:19;;;;;;;1999.90;999.90;;;18.20;99.90;;;;;;5092142;28;20028;-67
2023/10/06 10:07:52;;;;;;;1999.90;999.90;;;18.30;99.90;;;;;;5094179;28;20323;-67
2023/10/06 10:10:27;;;;;;;1999.90;999.90;;;18.50;99.90;;;;;;5082036;28;20033;-67
2023/10/06 10:13:26;;;;;;;1999.90;999.90;;;18.70;99.90;;;;;;5089656;28;20029;-67
2023/10/06 10:16:16;;;;;;;1999.90;999.90;;;18.70;99.90;;;;;;5087750;28;20024;-67
2023/10/06 10:18:53;;;;;;;1999.90;999.90;;;18.70;99.90;;;;;;5081636;28;20415;-67
2023/10/06 10:21:22;;;;;;;1999.90;999.90;;;18.70;99.90;;;;;;5083879;28;20025;-67
2023/10/06 10:23:48;;;;;;;1999.90;999.90;;;18.60;99.90;;;;;;5091160;28;20020;-66
2023/10/06 10:26:18;;;;;;;1999.90;999.90;;;18.60;99.90;;;;;;5088702;28;20063;-66
2023/10/06 10:29:04;;;;;;;1999.90;999.90;;;18.50;99.90;;;;;;5088120;28;20021;-66
2023/10/06 10:31:37;;;;;;;1999.90;999.90;;;18.50;99.90;;;;;;5093263;28;20052;-66
2023/10/06 10:34:03;;;;;;;1999.90;999.90;;;18.50;99.90;;;;;;5094287;28;20028;-67
2023/10/06 10:36:29;;;;;;;1999.90;999.90;;;18.30;99.90;;;;;;5081968;28;20024;-67
2023/10/06 10:39:09;;;;;;;1999.90;999.90;;;18.30;99.90;;;;;;5090556;28;20447;-67
2023/10/06 10:41:38;;;;;;;1999.90;999.90;;;18.30;99.90;;;;;;5083253;28;20042;-66
2023/10/06 10:44:06;;;;;;;1999.90;999.90;;;18.30;99.90;;;;;;5080504;28;20016;-67
2023/10/06 10:46:39;;;;;;;1999.90;999.90;;;18.40;99.90;;;;;;5084375;28;20031;-67
2023/10/06 10:49:13;;;;;;;1999.90;999.90;;;18.40;99.90;;;;;;5082635;28;20028;-66
2023/10/06 10:52:02;;;;;;;1999.90;999.90;;;18.40;99.90;;;;;;5117980;27;20025;-75
2023/10/06 10:54:31;;;;;;;1999.90;999.90;;;18.40;99.90;;;;;;5115410;27;20397;-67
2023/10/06 10:57:05;;;;;;;1999.90;999.90;;;18.40;99.90;;;;;;5105256;28;20024;-67
2023/10/06 11:00:25;;;;;;;1999.90;999.90;;;18.40;99.90;;;;;;5116347;27;20055;-67
2023/10/06 11:02:51;;;;;;;1999.90;999.90;;;18.50;99.90;;;;;;5118963;27;20232;-67
2023/10/06 11:05:21;;;;;;;1999.90;999.90;;;18.50;99.90;;;;;;5093957;27;20449;-67
2023/10/06 11:08:01;;;;;;;1999.90;999.90;;;18.60;99.90;;;;;;5102094;27;20026;-68
2023/10/06 11:10:28;;;;;;;1999.90;999.90;;;18.80;99.90;;;;;;5111118;27;20020;-66
2023/10/06 11:13:20;;;;;;;1999.90;999.90;;;19.00;99.90;;;;;;5119713;27;20035;-71
2023/10/06 11:15:48;;;;;;;1999.90;999.90;;;19.20;99.90;;;;;;5112000;27;20026;-67
2023/10/06 11:18:17;;;;;;;1999.90;999.90;;;19.30;99.90;;;;;;5110734;28;20024;-67
2023/10/06 11:20:45;;;;;;;1999.90;999.90;;;19.30;99.90;;;;;;5104257;28;20032;-67
2023/10/06 11:23:11;;;;;;;1999.90;999.90;;;19.50;99.90;;;;;;5112513;28;20422;-67
2023/10/06 11:25:48;;;;;;;1999.90;999.90;;;19.70;99.90;;;;;;5090739;28;20115;-67
2023/10/06 11:28:14;;;;;;;;;;;19.90;99.90;;;;;;5106305;28;20082;-68
2023/10/06 11:30:40;;;;;;;;;;;20.00;99.90;;;;;;5109840;28;19914;-67
2023/10/06 11:33:08;;;;;;;;;;;20.10;99.90;;;;;;5100878;28;20268;-72
2023/10/06 11:35:35;;;;;;;1999.90;999.90;;;20.30;99.90;;;;;;5110551;28;20006;-67
2023/10/06 11:38:20;;;;;;;1999.90;999.90;;;20.40;99.90;;;;;;5106857;28;20125;-66
2023/10/06 11:40:45;;;;;;;1999.90;999.90;;;20.40;99.90;;;;;;5103734;28;20119;-66
2023/10/06 11:43:23;;;;;;;1999.90;999.90;;;20.60;99.90;;;;;;5108732;28;20382;-66
2023/10/06 11:46:07;;;;;;;1999.90;999.90;;;20.60;99.90;;;;;;5103897;28;20040;-67
2023/10/06 11:48:34;;;;;;;1999.90;999.90;;;20.60;99.90;;;;;;5080128;28;20028;-67
2023/10/06 11:51:00;;;;;;;1999.90;999.90;;;20.60;99.90;;;;;;5105638;28;20452;-66
2023/10/06 11:53:26;;;;;;;1999.90;999.90;;;20.60;99.90;;;;;;5100881;28;20032;-66
2023/10/06 11:55:53;;;;;;;1999.90;999.90;;;20.70;99.90;;;;;;5081590;28;20423;-75
2023/10/06 11:58:40;;;;;;;1999.90;999.90;;;20.70;99.90;;;;;;5113218;28;20027;-67
2023/10/06 12:01:27;;;;;;;1999.90;999.90;;;20.60;99.90;;;;;;5085447;28;20030;-66
2023/10/06 12:03:59;;;;;;;1999.90;999.90;;;20.60;99.90;;;;;;5110144;28;20446;-67
2023/10/06 12:06:41;;;;;;;1999.90;999.90;;;20.70;99.90;;;;;;5116550;28;20088;-67
2023/10/06 12:09:08;;;;;;;1999.90;999.90;;;20.70;99.90;;;;;;5111806;28;20031;-67
2023/10/06 12:11:34;;;;;;;1999.90;999.90;;;20.80;99.90;;;;;;5115571;28;20023;-67
2023/10/06 12:13:59;;;;;;;1999.90;999.90;;;21.00;99.90;;;;;;5112292;28;20056;-67
2023/10/06 12:16:25;;;;;;;1999.90;999.90;;;21.00;99.90;;;;;;5110256;28;20050;-67
2023/10/06 12:18:51;;;;;;;1999.90;999.90;;;21.00;99.90;;;;;;5100586;28;20031;-67
2023/10/06 12:21:17;;;;;;;1999.90;999.90;;;20.80;99.90;;;;;;5108410;28;20280;-67
2023/10/06 12:23:47;;;;;;;1999.90;999.90;;;20.70;99.90;;;;;;5087135;28;20019;-79
2023/10/06 12:26:13;;;;;;;1999.90;999.90;;;20.60;99.90;;;;;;5120145;27;20088;-67